sensor_id;sensor_type;location;lat;lon;timestamp;P1;durP1;ratioP1;P2;durP2;ratioP2
70588;SDS011;58152;49.202;18.744;2023-01-05T00:01:42;5.00;;;3.85;;
70588;SDS011;58152;49.202;18.744;2023-01-05T00:04:08;3.92;;;3.28;;
70588;SDS011;58152;49.202;18.744;2023-01-05T00:06:34;5.05;;;4.43;;
70588;SDS011;58152;49.202;18.744;2023-01-05T00:09:03;4.80;;;3.92;;
70588;SDS011;58152;49.202;18.744;2023-01-05T00:11:32;5.15;;;4.13;;
70588;SDS011;58152;49.202;18.744;2023-01-05T00:17:04;6.20;;;5.60;;
70588;SDS011;58152;49.202;18.744;2023-01-05T00:19:50;5.57;;;4.97;;
70588;SDS011;58152;49.202;18.744;2023-01-05T00:22:40;9.63;;;7.78;;
70588;SDS011;58152;49.202;18.744;2023-01-05T00:25:20;10.82;;;8.10;;
70588;SDS011;58152;49.202;18.744;2023-01-05T00:27:47;10.18;;;7.80;;
70588;SDS011;58152;49.202;18.744;2023-01-05T00:30:15;9.45;;;7.85;;
70588;SDS011;58152;49.202;18.744;2023-01-05T00:32:43;7.35;;;6.22;;
70588;SDS011;58152;49.202;18.744;2023-01-05T00:35:10;6.82;;;5.38;;
70588;SDS011;58152;49.202;18.744;2023-01-05T00:37:37;4.05;;;3.55;;
70588;SDS011;58152;49.202;18.744;2023-01-05T00:40:06;4.35;;;3.33;;
70588;SDS011;58152;49.202;18.744;2023-01-05T00:42:33;2.45;;;2.25;;
70588;SDS011;58152;49.202;18.744;2023-01-05T00:44:59;2.97;;;2.67;;
70588;SDS011;58152;49.202;18.744;2023-01-05T00:47:24;2.78;;;2.38;;
70588;SDS011;58152;49.202;18.744;2023-01-05T00:49:50;2.60;;;2.35;;
70588;SDS011;58152;49.202;18.744;2023-01-05T00:52:15;2.67;;;2.20;;
70588;SDS011;58152;49.202;18.744;2023-01-05T00:54:41;3.95;;;2.47;;
70588;SDS011;58152;49.202;18.744;2023-01-05T00:57:09;2.72;;;2.30;;
70588;SDS011;58152;49.202;18.744;2023-01-05T00:59:37;2.20;;;2.00;;
70588;SDS011;58152;49.202;18.744;2023-01-05T01:02:03;2.75;;;2.25;;
70588;SDS011;58152;49.202;18.744;2023-01-05T01:04:29;1.60;;;1.50;;
70588;SDS011;58152;49.202;18.744;2023-01-05T01:06:55;1.83;;;1.65;;
70588;SDS011;58152;49.202;18.744;2023-01-05T01:09:21;2.33;;;2.13;;
70588;SDS011;58152;49.202;18.744;2023-01-05T01:11:46;1.50;;;1.40;;
70588;SDS011;58152;49.202;18.744;2023-01-05T01:14:12;1.23;;;1.13;;
70588;SDS011;58152;49.202;18.744;2023-01-05T01:16:39;0.95;;;0.90;;
70588;SDS011;58152;49.202;18.744;2023-01-05T01:19:06;1.20;;;1.10;;
70588;SDS011;58152;49.202;18.744;2023-01-05T01:21:31;1.20;;;1.10;;
70588;SDS011;58152;49.202;18.744;2023-01-05T01:23:57;0.82;;;0.82;;
70588;SDS011;58152;49.202;18.744;2023-01-05T01:26:22;1.35;;;0.90;;
70588;SDS011;58152;49.202;18.744;2023-01-05T01:28:48;1.25;;;1.15;;
70588;SDS011;58152;49.202;18.744;2023-01-05T01:31:13;1.10;;;1.00;;
70588;SDS011;58152;49.202;18.744;2023-01-05T01:33:39;1.13;;;1.02;;
70588;SDS011;58152;49.202;18.744;2023-01-05T01:36:05;1.58;;;1.48;;
70588;SDS011;58152;49.202;18.744;2023-01-05T01:38:32;1.25;;;1.15;;
70588;SDS011;58152;49.202;18.744;2023-01-05T01:40:57;1.38;;;1.25;;
70588;SDS011;58152;49.202;18.744;2023-01-05T01:46:12;1.27;;;1.10;;
70588;SDS011;58152;49.202;18.744;2023-01-05T01:48:38;1.40;;;1.10;;
70588;SDS011;58152;49.202;18.744;2023-01-05T01:51:19;1.40;;;1.27;;
70588;SDS011;58152;49.202;18.744;2023-01-05T01:54:06;1.63;;;1.52;;
70588;SDS011;58152;49.202;18.744;2023-01-05T01:56:37;1.73;;;1.60;;
70588;SDS011;58152;49.202;18.744;2023-01-05T01:59:08;1.33;;;1.23;;
70588;SDS011;58152;49.202;18.744;2023-01-05T02:01:34;1.60;;;1.50;;
70588;SDS011;58152;49.202;18.744;2023-01-05T02:04:00;1.63;;;1.52;;
70588;SDS011;58152;49.202;18.744;2023-01-05T02:06:26;2.10;;;1.90;;
70588;SDS011;58152;49.202;18.744;2023-01-05T02:08:51;1.92;;;1.77;;
70588;SDS011;58152;49.202;18.744;2023-01-05T02:11:36;2.10;;;1.92;;
70588;SDS011;58152;49.202;18.744;2023-01-05T02:30:58;2.92;;;2.20;;
70588;SDS011;58152;49.202;18.744;2023-01-05T02:36:18;2.42;;;2.17;;
70588;SDS011;58152;49.202;18.744;2023-01-05T02:44:20;1.77;;;1.67;;
70588;SDS011;58152;49.202;18.744;2023-01-05T02:46:45;1.70;;;1.60;;
70588;SDS011;58152;49.202;18.744;2023-01-05T02:49:22;1.80;;;1.70;;
70588;SDS011;58152;49.202;18.744;2023-01-05T02:51:48;1.92;;;1.70;;
70588;SDS011;58152;49.202;18.744;2023-01-05T02:54:43;1.70;;;1.60;;
70588;SDS011;58152;49.202;18.744;2023-01-05T02:57:18;1.67;;;1.58;;
70588;SDS011;58152;49.202;18.744;2023-01-05T03:00:06;2.03;;;1.77;;
70588;SDS011;58152;49.202;18.744;2023-01-05T03:02:33;2.50;;;2.30;;
70588;SDS011;58152;49.202;18.744;2023-01-05T03:05:07;4.30;;;2.30;;
70588;SDS011;58152;49.202;18.744;2023-01-05T03:07:38;2.85;;;2.65;;
70588;SDS011;58152;49.202;18.744;2023-01-05T03:10:07;2.80;;;2.60;;
70588;SDS011;58152;49.202;18.744;2023-01-05T03:12:54;2.55;;;2.35;;
70588;SDS011;58152;49.202;18.744;2023-01-05T03:15:40;2.67;;;2.45;;
70588;SDS011;58152;49.202;18.744;2023-01-05T03:18:09;3.00;;;2.72;;
70588;SDS011;58152;49.202;18.744;2023-01-05T03:20:39;3.15;;;2.85;;
70588;SDS011;58152;49.202;18.744;2023-01-05T03:23:08;2.95;;;2.75;;
70588;SDS011;58152;49.202;18.744;2023-01-05T03:28:41;3.00;;;2.70;;
70588;SDS011;58152;49.202;18.744;2023-01-05T03:31:43;3.00;;;2.72;;
70588;SDS011;58152;49.202;18.744;2023-01-05T03:37:36;3.80;;;3.13;;
70588;SDS011;58152;49.202;18.744;2023-01-05T03:40:08;4.47;;;3.38;;
70588;SDS011;58152;49.202;18.744;2023-01-05T03:42:39;3.47;;;3.17;;
70588;SDS011;58152;49.202;18.744;2023-01-05T03:45:07;3.83;;;3.42;;
70588;SDS011;58152;49.202;18.744;2023-01-05T03:47:34;4.93;;;3.63;;
70588;SDS011;58152;49.202;18.744;2023-01-05T03:49:59;4.20;;;3.70;;
70588;SDS011;58152;49.202;18.744;2023-01-05T03:52:24;5.25;;;4.20;;
70588;SDS011;58152;49.202;18.744;2023-01-05T03:54:50;5.03;;;4.53;;
70588;SDS011;58152;49.202;18.744;2023-01-05T03:57:15;4.85;;;4.35;;
70588;SDS011;58152;49.202;18.744;2023-01-05T03:59:41;4.93;;;4.18;;
70588;SDS011;58152;49.202;18.744;2023-01-05T04:02:06;5.00;;;4.50;;
70588;SDS011;58152;49.202;18.744;2023-01-05T04:04:32;5.30;;;4.32;;
70588;SDS011;58152;49.202;18.744;2023-01-05T04:06:57;5.32;;;3.90;;
70588;SDS011;58152;49.202;18.744;2023-01-05T04:09:22;3.75;;;3.45;;
70588;SDS011;58152;49.202;18.744;2023-01-05T04:11:48;4.32;;;3.42;;
70588;SDS011;58152;49.202;18.744;2023-01-05T04:14:13;3.78;;;3.42;;
70588;SDS011;58152;49.202;18.744;2023-01-05T04:16:39;4.10;;;3.72;;
70588;SDS011;58152;49.202;18.744;2023-01-05T04:19:07;4.65;;;4.22;;
70588;SDS011;58152;49.202;18.744;2023-01-05T04:21:32;4.35;;;3.83;;
70588;SDS011;58152;49.202;18.744;2023-01-05T04:23:57;4.07;;;3.33;;
70588;SDS011;58152;49.202;18.744;2023-01-05T04:26:23;3.17;;;2.88;;
70588;SDS011;58152;49.202;18.744;2023-01-05T04:28:48;4.03;;;3.22;;
70588;SDS011;58152;49.202;18.744;2023-01-05T04:31:14;107.97;;;76.63;;
70588;SDS011;58152;49.202;18.744;2023-01-05T04:33:39;107.82;;;75.65;;
70588;SDS011;58152;49.202;18.744;2023-01-05T04:36:05;73.70;;;50.38;;
70588;SDS011;58152;49.202;18.744;2023-01-05T04:38:31;33.95;;;23.30;;
70588;SDS011;58152;49.202;18.744;2023-01-05T04:40:57;17.23;;;12.68;;
70588;SDS011;58152;49.202;18.744;2023-01-05T04:43:22;10.40;;;7.78;;
70588;SDS011;58152;49.202;18.744;2023-01-05T04:45:48;5.88;;;4.57;;
70588;SDS011;58152;49.202;18.744;2023-01-05T04:48:14;4.00;;;3.60;;
70588;SDS011;58152;49.202;18.744;2023-01-05T04:50:40;4.63;;;3.70;;
70588;SDS011;58152;49.202;18.744;2023-01-05T04:53:06;2.58;;;2.28;;
70588;SDS011;58152;49.202;18.744;2023-01-05T04:55:31;2.67;;;2.20;;
70588;SDS011;58152;49.202;18.744;2023-01-05T04:57:57;2.03;;;1.63;;
70588;SDS011;58152;49.202;18.744;2023-01-05T05:00:22;1.70;;;1.60;;
70588;SDS011;58152;49.202;18.744;2023-01-05T05:02:50;1.63;;;1.35;;
70588;SDS011;58152;49.202;18.744;2023-01-05T05:05:16;1.48;;;1.38;;
70588;SDS011;58152;49.202;18.744;2023-01-05T05:07:41;1.58;;;1.45;;
70588;SDS011;58152;49.202;18.744;2023-01-05T05:10:07;1.15;;;1.05;;
70588;SDS011;58152;49.202;18.744;2023-01-05T05:12:33;1.10;;;1.00;;
70588;SDS011;58152;49.202;18.744;2023-01-05T05:14:58;1.00;;;0.90;;
70588;SDS011;58152;49.202;18.744;2023-01-05T05:17:24;1.88;;;1.20;;
70588;SDS011;58152;49.202;18.744;2023-01-05T05:19:49;1.35;;;1.08;;
70588;SDS011;58152;49.202;18.744;2023-01-05T05:22:15;1.20;;;1.00;;
70588;SDS011;58152;49.202;18.744;2023-01-05T05:24:40;1.10;;;1.00;;
70588;SDS011;58152;49.202;18.744;2023-01-05T05:27:06;1.52;;;1.27;;
70588;SDS011;58152;49.202;18.744;2023-01-05T05:29:31;1.17;;;1.08;;
70588;SDS011;58152;49.202;18.744;2023-01-05T05:31:57;1.17;;;1.08;;
70588;SDS011;58152;49.202;18.744;2023-01-05T05:34:22;1.20;;;1.10;;
70588;SDS011;58152;49.202;18.744;2023-01-05T05:36:47;1.38;;;1.17;;
70588;SDS011;58152;49.202;18.744;2023-01-05T05:39:13;1.92;;;1.17;;
70588;SDS011;58152;49.202;18.744;2023-01-05T05:41:39;1.70;;;1.48;;
70588;SDS011;58152;49.202;18.744;2023-01-05T05:44:05;2.78;;;2.20;;
70588;SDS011;58152;49.202;18.744;2023-01-05T05:46:32;1.90;;;1.77;;
70588;SDS011;58152;49.202;18.744;2023-01-05T05:48:58;1.65;;;1.38;;
70588;SDS011;58152;49.202;18.744;2023-01-05T05:51:24;2.65;;;1.42;;
70588;SDS011;58152;49.202;18.744;2023-01-05T05:53:50;1.88;;;1.40;;
70588;SDS011;58152;49.202;18.744;2023-01-05T05:56:16;2.33;;;1.40;;
70588;SDS011;58152;49.202;18.744;2023-01-05T05:58:41;1.27;;;1.17;;
70588;SDS011;58152;49.202;18.744;2023-01-05T06:01:07;1.92;;;1.45;;
70588;SDS011;58152;49.202;18.744;2023-01-05T06:03:33;1.00;;;0.93;;
70588;SDS011;58152;49.202;18.744;2023-01-05T06:05:58;2.03;;;1.20;;
70588;SDS011;58152;49.202;18.744;2023-01-05T06:08:25;1.10;;;1.00;;
70588;SDS011;58152;49.202;18.744;2023-01-05T06:10:53;0.90;;;0.90;;
70588;SDS011;58152;49.202;18.744;2023-01-05T06:13:20;2.75;;;1.27;;
70588;SDS011;58152;49.202;18.744;2023-01-05T06:15:46;1.38;;;1.10;;
70588;SDS011;58152;49.202;18.744;2023-01-05T06:18:12;2.03;;;0.80;;
70588;SDS011;58152;49.202;18.744;2023-01-05T06:20:37;1.38;;;1.27;;
70588;SDS011;58152;49.202;18.744;2023-01-05T06:23:03;1.25;;;1.10;;
70588;SDS011;58152;49.202;18.744;2023-01-05T06:25:29;1.67;;;1.05;;
70588;SDS011;58152;49.202;18.744;2023-01-05T06:27:54;1.40;;;1.30;;
70588;SDS011;58152;49.202;18.744;2023-01-05T06:30:20;1.27;;;1.05;;
70588;SDS011;58152;49.202;18.744;2023-01-05T06:32:45;1.40;;;1.20;;
70588;SDS011;58152;49.202;18.744;2023-01-05T06:35:11;1.75;;;1.00;;
70588;SDS011;58152;49.202;18.744;2023-01-05T06:37:36;1.15;;;1.05;;
70588;SDS011;58152;49.202;18.744;2023-01-05T06:40:02;1.58;;;1.30;;
70588;SDS011;58152;49.202;18.744;2023-01-05T06:42:28;1.20;;;1.10;;
70588;SDS011;58152;49.202;18.744;2023-01-05T06:44:53;1.38;;;1.27;;
70588;SDS011;58152;49.202;18.744;2023-01-05T06:47:19;1.92;;;1.38;;
70588;SDS011;58152;49.202;18.744;2023-01-05T06:49:44;1.58;;;1.35;;
70588;SDS011;58152;49.202;18.744;2023-01-05T06:52:18;2.60;;;1.83;;
70588;SDS011;58152;49.202;18.744;2023-01-05T06:54:44;2.30;;;2.00;;
70588;SDS011;58152;49.202;18.744;2023-01-05T06:57:09;2.15;;;1.60;;
70588;SDS011;58152;49.202;18.744;2023-01-05T06:59:35;2.03;;;1.42;;
70588;SDS011;58152;49.202;18.744;2023-01-05T07:02:00;0.95;;;0.93;;
70588;SDS011;58152;49.202;18.744;2023-01-05T07:04:28;2.00;;;0.93;;
70588;SDS011;58152;49.202;18.744;2023-01-05T07:06:54;1.60;;;0.90;;
70588;SDS011;58152;49.202;18.744;2023-01-05T07:09:19;2.42;;;0.80;;
70588;SDS011;58152;49.202;18.744;2023-01-05T07:11:45;1.98;;;0.68;;
70588;SDS011;58152;49.202;18.744;2023-01-05T07:14:10;0.70;;;0.70;;
70588;SDS011;58152;49.202;18.744;2023-01-05T07:16:35;0.80;;;0.70;;
70588;SDS011;58152;49.202;18.744;2023-01-05T07:19:01;1.90;;;0.70;;
70588;SDS011;58152;49.202;18.744;2023-01-05T07:21:26;1.55;;;1.00;;
70588;SDS011;58152;49.202;18.744;2023-01-05T07:23:52;1.52;;;1.20;;
70588;SDS011;58152;49.202;18.744;2023-01-05T07:26:17;0.70;;;0.70;;
70588;SDS011;58152;49.202;18.744;2023-01-05T07:28:42;0.90;;;0.75;;
70588;SDS011;58152;49.202;18.744;2023-01-05T07:31:08;0.93;;;0.75;;
70588;SDS011;58152;49.202;18.744;2023-01-05T07:33:34;0.50;;;0.50;;
70588;SDS011;58152;49.202;18.744;2023-01-05T07:36:03;1.60;;;0.68;;
70588;SDS011;58152;49.202;18.744;2023-01-05T07:38:32;1.20;;;0.75;;
70588;SDS011;58152;49.202;18.744;2023-01-05T07:40:58;1.13;;;0.85;;
70588;SDS011;58152;49.202;18.744;2023-01-05T07:43:25;2.42;;;0.70;;
70588;SDS011;58152;49.202;18.744;2023-01-05T07:45:51;0.55;;;0.52;;
70588;SDS011;58152;49.202;18.744;2023-01-05T07:48:21;0.50;;;0.50;;
70588;SDS011;58152;49.202;18.744;2023-01-05T07:50:46;0.75;;;0.73;;
70588;SDS011;58152;49.202;18.744;2023-01-05T07:53:18;0.95;;;0.60;;
70588;SDS011;58152;49.202;18.744;2023-01-05T07:55:53;0.70;;;0.63;;
70588;SDS011;58152;49.202;18.744;2023-01-05T07:58:23;2.80;;;0.70;;
70588;SDS011;58152;49.202;18.744;2023-01-05T08:00:48;1.20;;;0.88;;
70588;SDS011;58152;49.202;18.744;2023-01-05T08:03:14;2.13;;;1.92;;
70588;SDS011;58152;49.202;18.744;2023-01-05T08:05:40;1.58;;;1.15;;
70588;SDS011;58152;49.202;18.744;2023-01-05T08:08:05;0.63;;;0.63;;
70588;SDS011;58152;49.202;18.744;2023-01-05T08:10:31;1.25;;;0.70;;
70588;SDS011;58152;49.202;18.744;2023-01-05T08:13:00;0.70;;;0.70;;
70588;SDS011;58152;49.202;18.744;2023-01-05T08:15:45;1.05;;;0.55;;
70588;SDS011;58152;49.202;18.744;2023-01-05T08:18:11;0.77;;;0.63;;
70588;SDS011;58152;49.202;18.744;2023-01-05T08:20:36;1.40;;;0.60;;
70588;SDS011;58152;49.202;18.744;2023-01-05T08:23:06;0.80;;;0.60;;
70588;SDS011;58152;49.202;18.744;2023-01-05T08:25:39;2.28;;;1.45;;
70588;SDS011;58152;49.202;18.744;2023-01-05T08:28:05;1.08;;;0.90;;
70588;SDS011;58152;49.202;18.744;2023-01-05T08:30:30;1.00;;;0.73;;
70588;SDS011;58152;49.202;18.744;2023-01-05T08:32:57;0.90;;;0.60;;
70588;SDS011;58152;49.202;18.744;2023-01-05T08:35:23;2.10;;;0.60;;
70588;SDS011;58152;49.202;18.744;2023-01-05T08:37:48;0.60;;;0.60;;
70588;SDS011;58152;49.202;18.744;2023-01-05T08:40:14;1.85;;;0.82;;
70588;SDS011;58152;49.202;18.744;2023-01-05T08:42:41;1.08;;;0.60;;
70588;SDS011;58152;49.202;18.744;2023-01-05T08:47:56;1.52;;;0.90;;
70588;SDS011;58152;49.202;18.744;2023-01-05T08:50:48;0.82;;;0.80;;
70588;SDS011;58152;49.202;18.744;2023-01-05T08:53:14;1.33;;;0.90;;
70588;SDS011;58152;49.202;18.744;2023-01-05T08:55:41;2.63;;;1.42;;
70588;SDS011;58152;49.202;18.744;2023-01-05T08:58:17;1.58;;;0.98;;
70588;SDS011;58152;49.202;18.744;2023-01-05T09:00:45;7.57;;;4.43;;
70588;SDS011;58152;49.202;18.744;2023-01-05T09:03:18;3.22;;;2.15;;
70588;SDS011;58152;49.202;18.744;2023-01-05T09:05:44;2.10;;;1.40;;
70588;SDS011;58152;49.202;18.744;2023-01-05T09:08:09;2.03;;;1.10;;
70588;SDS011;58152;49.202;18.744;2023-01-05T09:10:35;1.23;;;0.80;;
70588;SDS011;58152;49.202;18.744;2023-01-05T09:13:01;0.63;;;0.63;;
70588;SDS011;58152;49.202;18.744;2023-01-05T09:15:26;3.55;;;1.00;;
70588;SDS011;58152;49.202;18.744;2023-01-05T09:17:52;4.28;;;0.95;;
70588;SDS011;58152;49.202;18.744;2023-01-05T09:20:17;3.40;;;0.70;;
70588;SDS011;58152;49.202;18.744;2023-01-05T09:23:03;1.95;;;0.95;;
70588;SDS011;58152;49.202;18.744;2023-01-05T09:25:28;1.67;;;0.80;;
70588;SDS011;58152;49.202;18.744;2023-01-05T09:27:54;2.38;;;1.02;;
70588;SDS011;58152;49.202;18.744;2023-01-05T09:30:22;1.38;;;1.27;;
70588;SDS011;58152;49.202;18.744;2023-01-05T09:32:57;2.63;;;0.90;;
70588;SDS011;58152;49.202;18.744;2023-01-05T09:35:23;1.63;;;1.08;;
70588;SDS011;58152;49.202;18.744;2023-01-05T09:43:39;1.75;;;0.65;;
70588;SDS011;58152;49.202;18.744;2023-01-05T09:46:15;1.35;;;0.82;;
70588;SDS011;58152;49.202;18.744;2023-01-05T09:48:57;1.33;;;0.88;;
70588;SDS011;58152;49.202;18.744;2023-01-05T09:51:30;2.53;;;0.95;;
70588;SDS011;58152;49.202;18.744;2023-01-05T09:53:57;2.72;;;0.88;;
70588;SDS011;58152;49.202;18.744;2023-01-05T09:56:28;2.65;;;0.90;;
70588;SDS011;58152;49.202;18.744;2023-01-05T09:59:11;1.48;;;0.70;;
70588;SDS011;58152;49.202;18.744;2023-01-05T10:01:41;1.25;;;0.70;;
70588;SDS011;58152;49.202;18.744;2023-01-05T10:04:10;1.08;;;0.80;;
70588;SDS011;58152;49.202;18.744;2023-01-05T10:06:50;1.73;;;0.80;;
70588;SDS011;58152;49.202;18.744;2023-01-05T10:09:23;0.73;;;0.70;;
70588;SDS011;58152;49.202;18.744;2023-01-05T10:11:57;1.85;;;1.10;;
70588;SDS011;58152;49.202;18.744;2023-01-05T10:14:59;1.52;;;0.95;;
70588;SDS011;58152;49.202;18.744;2023-01-05T10:17:25;2.72;;;0.80;;
70588;SDS011;58152;49.202;18.744;2023-01-05T10:19:55;0.80;;;0.70;;
70588;SDS011;58152;49.202;18.744;2023-01-05T10:31:00;3.45;;;1.00;;
70588;SDS011;58152;49.202;18.744;2023-01-05T10:39:01;2.38;;;1.10;;
70588;SDS011;58152;49.202;18.744;2023-01-05T10:44:05;2.17;;;1.30;;
70588;SDS011;58152;49.202;18.744;2023-01-05T10:46:45;2.55;;;1.20;;
70588;SDS011;58152;49.202;18.744;2023-01-05T10:49:20;1.52;;;1.00;;
70588;SDS011;58152;49.202;18.744;2023-01-05T10:51:50;1.20;;;0.80;;
70588;SDS011;58152;49.202;18.744;2023-01-05T10:54:35;2.63;;;0.88;;
70588;SDS011;58152;49.202;18.744;2023-01-05T11:05:33;2.47;;;1.40;;
70588;SDS011;58152;49.202;18.744;2023-01-05T11:08:05;1.67;;;1.00;;
70588;SDS011;58152;49.202;18.744;2023-01-05T11:16:06;1.77;;;1.08;;
70588;SDS011;58152;49.202;18.744;2023-01-05T11:23:57;2.70;;;1.20;;
70588;SDS011;58152;49.202;18.744;2023-01-05T11:26:30;2.58;;;1.30;;
70588;SDS011;58152;49.202;18.744;2023-01-05T11:29:12;2.92;;;1.25;;
70588;SDS011;58152;49.202;18.744;2023-01-05T11:31:57;0.80;;;0.80;;
70588;SDS011;58152;49.202;18.744;2023-01-05T11:34:26;3.05;;;2.25;;
70588;SDS011;58152;49.202;18.744;2023-01-05T11:40:01;2.88;;;1.25;;
70588;SDS011;58152;49.202;18.744;2023-01-05T11:42:29;2.85;;;1.70;;
70588;SDS011;58152;49.202;18.744;2023-01-05T11:55:33;1.10;;;0.90;;
70588;SDS011;58152;49.202;18.744;2023-01-05T12:01:21;1.80;;;0.98;;
70588;SDS011;58152;49.202;18.744;2023-01-05T12:09:35;1.80;;;1.00;;
70588;SDS011;58152;49.202;18.744;2023-01-05T12:14:37;3.13;;;1.20;;
70588;SDS011;58152;49.202;18.744;2023-01-05T12:26:16;2.20;;;1.00;;
70588;SDS011;58152;49.202;18.744;2023-01-05T12:41:29;1.52;;;0.90;;
70588;SDS011;58152;49.202;18.744;2023-01-05T12:55:55;2.92;;;1.50;;
70588;SDS011;58152;49.202;18.744;2023-01-05T12:58:36;2.00;;;1.40;;
70588;SDS011;58152;49.202;18.744;2023-01-05T13:01:05;2.90;;;1.27;;
70588;SDS011;58152;49.202;18.744;2023-01-05T13:03:47;3.90;;;1.35;;
70588;SDS011;58152;49.202;18.744;2023-01-05T13:06:20;3.00;;;1.30;;
70588;SDS011;58152;49.202;18.744;2023-01-05T13:08:51;1.20;;;0.88;;
70588;SDS011;58152;49.202;18.744;2023-01-05T13:14:18;2.40;;;1.27;;
70588;SDS011;58152;49.202;18.744;2023-01-05T13:16:51;4.50;;;2.10;;
70588;SDS011;58152;49.202;18.744;2023-01-05T13:19:21;1.80;;;1.25;;
70588;SDS011;58152;49.202;18.744;2023-01-05T13:21:51;1.83;;;1.10;;
70588;SDS011;58152;49.202;18.744;2023-01-05T13:24:39;3.60;;;1.38;;
70588;SDS011;58152;49.202;18.744;2023-01-05T13:27:14;4.18;;;1.38;;
70588;SDS011;58152;49.202;18.744;2023-01-05T13:29:42;2.78;;;1.10;;
70588;SDS011;58152;49.202;18.744;2023-01-05T13:32:16;5.07;;;1.15;;
70588;SDS011;58152;49.202;18.744;2023-01-05T13:40:21;1.88;;;0.95;;
70588;SDS011;58152;49.202;18.744;2023-01-05T13:54:05;3.20;;;1.13;;
70588;SDS011;58152;49.202;18.744;2023-01-05T13:56:38;3.55;;;1.42;;
70588;SDS011;58152;49.202;18.744;2023-01-05T13:59:05;4.63;;;1.35;;
70588;SDS011;58152;49.202;18.744;2023-01-05T14:01:38;3.33;;;1.83;;
70588;SDS011;58152;49.202;18.744;2023-01-05T14:04:14;3.75;;;1.95;;
70588;SDS011;58152;49.202;18.744;2023-01-05T14:06:43;4.88;;;2.08;;
70588;SDS011;58152;49.202;18.744;2023-01-05T14:09:16;3.25;;;1.40;;
70588;SDS011;58152;49.202;18.744;2023-01-05T14:36:28;1.00;;;0.90;;
70588;SDS011;58152;49.202;18.744;2023-01-05T14:39:02;2.28;;;1.15;;
70588;SDS011;58152;49.202;18.744;2023-01-05T14:44:26;2.00;;;1.20;;
70588;SDS011;58152;49.202;18.744;2023-01-05T14:46:58;1.95;;;1.20;;
70588;SDS011;58152;49.202;18.744;2023-01-05T14:52:00;3.30;;;1.80;;
70588;SDS011;58152;49.202;18.744;2023-01-05T14:54:34;2.38;;;1.35;;
70588;SDS011;58152;49.202;18.744;2023-01-05T14:59:55;2.30;;;1.48;;
70588;SDS011;58152;49.202;18.744;2023-01-05T15:02:32;2.97;;;1.90;;
70588;SDS011;58152;49.202;18.744;2023-01-05T15:05:15;3.95;;;1.98;;
70588;SDS011;58152;49.202;18.744;2023-01-05T15:07:59;3.22;;;1.67;;
70588;SDS011;58152;49.202;18.744;2023-01-05T15:13:43;1.95;;;1.23;;
70588;SDS011;58152;49.202;18.744;2023-01-05T15:16:47;4.25;;;1.73;;
70588;SDS011;58152;49.202;18.744;2023-01-05T15:33:10;2.22;;;1.50;;
70588;SDS011;58152;49.202;18.744;2023-01-05T15:36:00;3.03;;;1.70;;
70588;SDS011;58152;49.202;18.744;2023-01-05T15:45:03;1.10;;;1.00;;
70588;SDS011;58152;49.202;18.744;2023-01-05T15:47:35;4.22;;;1.33;;
70588;SDS011;58152;49.202;18.744;2023-01-05T15:50:03;1.92;;;1.35;;
70588;SDS011;58152;49.202;18.744;2023-01-05T15:58:11;4.47;;;1.70;;
70588;SDS011;58152;49.202;18.744;2023-01-05T16:03:44;3.33;;;1.20;;
70588;SDS011;58152;49.202;18.744;2023-01-05T16:06:16;3.00;;;1.48;;
70588;SDS011;58152;49.202;18.744;2023-01-05T16:08:48;1.98;;;1.38;;
70588;SDS011;58152;49.202;18.744;2023-01-05T16:11:23;3.53;;;1.80;;
70588;SDS011;58152;49.202;18.744;2023-01-05T16:14:00;4.65;;;1.48;;
70588;SDS011;58152;49.202;18.744;2023-01-05T16:16:30;3.08;;;1.13;;
70588;SDS011;58152;49.202;18.744;2023-01-05T16:19:05;1.65;;;0.82;;
70588;SDS011;58152;49.202;18.744;2023-01-05T16:21:40;3.40;;;1.10;;
70588;SDS011;58152;49.202;18.744;2023-01-05T16:26:41;1.60;;;1.00;;
70588;SDS011;58152;49.202;18.744;2023-01-05T16:29:20;3.38;;;1.63;;
70588;SDS011;58152;49.202;18.744;2023-01-05T16:31:55;3.63;;;1.70;;
70588;SDS011;58152;49.202;18.744;2023-01-05T16:34:21;2.75;;;1.65;;
70588;SDS011;58152;49.202;18.744;2023-01-05T16:39:41;2.63;;;1.80;;
70588;SDS011;58152;49.202;18.744;2023-01-05T16:44:58;2.17;;;1.50;;
70588;SDS011;58152;49.202;18.744;2023-01-05T16:47:32;2.05;;;1.45;;
70588;SDS011;58152;49.202;18.744;2023-01-05T16:52:54;2.33;;;1.10;;
70588;SDS011;58152;49.202;18.744;2023-01-05T16:55:29;1.45;;;1.27;;
70588;SDS011;58152;49.202;18.744;2023-01-05T16:57:57;1.70;;;1.20;;
70588;SDS011;58152;49.202;18.744;2023-01-05T17:02:50;1.92;;;1.00;;
70588;SDS011;58152;49.202;18.744;2023-01-05T17:05:20;0.95;;;0.90;;
70588;SDS011;58152;49.202;18.744;2023-01-05T17:07:49;4.35;;;1.95;;
70588;SDS011;58152;49.202;18.744;2023-01-05T17:10:26;3.03;;;1.63;;
70588;SDS011;58152;49.202;18.744;2023-01-05T17:13:05;2.10;;;1.85;;
70588;SDS011;58152;49.202;18.744;2023-01-05T17:15:43;2.40;;;1.50;;
70588;SDS011;58152;49.202;18.744;2023-01-05T17:21:31;2.00;;;1.38;;
70588;SDS011;58152;49.202;18.744;2023-01-05T17:24:07;1.75;;;1.13;;
70588;SDS011;58152;49.202;18.744;2023-01-05T17:26:36;2.55;;;1.20;;
70588;SDS011;58152;49.202;18.744;2023-01-05T17:29:18;2.15;;;1.00;;
70588;SDS011;58152;49.202;18.744;2023-01-05T17:31:48;1.70;;;1.00;;
70588;SDS011;58152;49.202;18.744;2023-01-05T17:34:15;2.30;;;1.20;;
70588;SDS011;58152;49.202;18.744;2023-01-05T17:36:46;1.77;;;1.02;;
70588;SDS011;58152;49.202;18.744;2023-01-05T17:39:27;2.17;;;1.17;;
70588;SDS011;58152;49.202;18.744;2023-01-05T17:41:52;1.80;;;1.33;;
70588;SDS011;58152;49.202;18.744;2023-01-05T17:44:37;1.67;;;1.25;;
70588;SDS011;58152;49.202;18.744;2023-01-05T17:47:03;1.75;;;1.10;;
70588;SDS011;58152;49.202;18.744;2023-01-05T17:49:46;1.95;;;1.10;;
70588;SDS011;58152;49.202;18.744;2023-01-05T17:52:12;2.35;;;1.25;;
70588;SDS011;58152;49.202;18.744;2023-01-05T17:54:37;1.30;;;1.15;;
70588;SDS011;58152;49.202;18.744;2023-01-05T17:57:05;1.48;;;1.15;;
70588;SDS011;58152;49.202;18.744;2023-01-05T17:59:34;2.22;;;1.40;;
70588;SDS011;58152;49.202;18.744;2023-01-05T18:02:09;4.13;;;1.95;;
70588;SDS011;58152;49.202;18.744;2023-01-05T18:04:41;3.78;;;2.50;;
70588;SDS011;58152;49.202;18.744;2023-01-05T18:08:11;3.35;;;1.83;;
70588;SDS011;58152;49.202;18.744;2023-01-05T18:10:36;3.67;;;2.17;;
70588;SDS011;58152;49.202;18.744;2023-01-05T18:13:03;3.05;;;2.25;;
70588;SDS011;58152;49.202;18.744;2023-01-05T18:15:34;5.93;;;3.45;;
70588;SDS011;58152;49.202;18.744;2023-01-05T18:18:05;3.55;;;2.67;;
70588;SDS011;58152;49.202;18.744;2023-01-05T18:20:30;2.10;;;1.90;;
70588;SDS011;58152;49.202;18.744;2023-01-05T18:22:56;2.00;;;1.38;;
70588;SDS011;58152;49.202;18.744;2023-01-05T18:25:22;1.63;;;1.05;;
70588;SDS011;58152;49.202;18.744;2023-01-05T18:27:49;3.25;;;1.40;;
70588;SDS011;58152;49.202;18.744;2023-01-05T18:30:14;1.48;;;1.05;;
70588;SDS011;58152;49.202;18.744;2023-01-05T18:32:47;1.58;;;1.10;;
70588;SDS011;58152;49.202;18.744;2023-01-05T18:35:29;2.45;;;1.38;;
70588;SDS011;58152;49.202;18.744;2023-01-05T18:37:55;2.30;;;1.15;;
70588;SDS011;58152;49.202;18.744;2023-01-05T18:40:23;2.20;;;0.90;;
70588;SDS011;58152;49.202;18.744;2023-01-05T18:42:48;2.20;;;1.08;;
70588;SDS011;58152;49.202;18.744;2023-01-05T18:45:14;1.52;;;0.88;;
70588;SDS011;58152;49.202;18.744;2023-01-05T18:47:39;0.90;;;0.80;;
70588;SDS011;58152;49.202;18.744;2023-01-05T18:50:05;1.17;;;0.90;;
70588;SDS011;58152;49.202;18.744;2023-01-05T18:52:32;1.48;;;0.90;;